Terminal Aerodrome Forecast
Issued by NWS

Current Version | Previous Version | Graphics & Text | Print | Product List | Glossary On
Versions: 1 2 3 4 5 6 7 8 9 10 11 12 13 14 15 16 17 18 19 20
000
FTUS41 KPBZ 161120
TAFMGW
TAF
KMGW 161120Z 1612/1712 12003KT P6SM BKN080
     FM161800 14003KT P6SM OVC025
     FM162100 14003KT P6SM OVC015
     FM170700 14005KT 3SM -RA BR OVC010=

USA.gov is the U.S. government's official web portal to all federal, state and local government web resources and services.